Time;durP1;ratioP1;P1;durP2;ratioP2;P2;SDS_P1;SDS_P2;PMS_P1;PMS_P2;Temp;Humidity;BMP_temperature;BMP_pressure;BME280_temperature;BME280_humidity;BME280_pressure;Samples;Min_cycle;Max_cycle;Signal;HPM_P1;HPM_P2
2022/10/22 00:00:14;;;;;;;50.72;32.30;;;11.30;99.90;;;;;;2079999;28;20034;-71
2022/10/22 00:01:15;;;;;;;48.85;31.80;;;11.30;99.90;;;;;;2080337;28;20109;-71
2022/10/22 00:02:18;;;;;;;49.75;31.85;;;11.30;99.90;;;;;;2080441;28;20032;-70
2022/10/22 00:03:22;;;;;;;52.33;33.22;;;11.40;99.90;;;;;;2078972;28;20032;-71
2022/10/22 00:04:23;;;;;;;45.40;29.88;;;11.40;99.90;;;;;;2079464;28;20076;-73
2022/10/22 00:05:24;;;;;;;46.67;29.63;;;11.40;99.90;;;;;;2079536;28;20029;-70
2022/10/22 00:06:24;;;;;;;46.33;29.38;;;11.40;99.90;;;;;;2079593;28;20033;-71
2022/10/22 00:07:25;;;;;;;44.70;28.73;;;11.40;99.90;;;;;;2078620;28;20180;-71
2022/10/22 00:08:26;;;;;;;45.80;30.35;;;11.40;99.90;;;;;;2080807;28;20532;-72
2022/10/22 00:09:27;;;;;;;44.35;28.80;;;11.40;99.90;;;;;;2087718;28;20029;-71
2022/10/22 00:10:28;;;;;;;45.67;29.90;;;11.40;99.90;;;;;;2088551;28;20028;-71
2022/10/22 00:11:28;;;;;;;47.97;30.38;;;11.40;99.90;;;;;;2087775;28;20052;-72
2022/10/22 00:12:29;;;;;;;46.80;30.20;;;11.40;99.90;;;;;;2096154;28;20147;-72
2022/10/22 00:13:30;;;;;;;50.40;32.35;;;11.40;99.90;;;;;;2096667;28;20520;-72
2022/10/22 00:14:30;;;;;;;51.90;32.60;;;11.40;99.90;;;;;;2080033;28;20041;-71
2022/10/22 00:15:31;;;;;;;53.33;33.35;;;11.40;99.90;;;;;;2079411;28;20040;-71
2022/10/22 00:16:32;;;;;;;51.40;32.70;;;11.40;99.90;;;;;;2079700;28;20471;-71
2022/10/22 00:17:32;;;;;;;50.72;31.70;;;11.40;99.90;;;;;;2079703;28;20048;-71
2022/10/22 00:18:34;;;;;;;48.85;31.10;;;11.40;99.90;;;;;;2079554;28;20104;-71
2022/10/22 00:19:35;;;;;;;46.88;30.58;;;11.40;99.90;;;;;;2079751;28;20048;-71
2022/10/22 00:20:36;;;;;;;46.28;30.52;;;11.40;99.90;;;;;;2080230;28;20108;-71
2022/10/22 00:21:36;;;;;;;58.17;36.00;;;11.40;99.90;;;;;;2075751;28;20049;-71
2022/10/22 00:22:37;;;;;;;54.60;33.55;;;11.40;99.90;;;;;;2079501;28;20033;-71
2022/10/22 00:23:42;;;;;;;52.33;32.20;;;11.40;99.90;;;;;;2080113;28;20021;-72
2022/10/22 00:24:42;;;;;;;57.97;36.25;;;11.40;99.90;;;;;;2079774;28;20043;-71
2022/10/22 00:25:43;;;;;;;62.25;37.67;;;11.40;99.90;;;;;;2079511;28;20068;-72
2022/10/22 00:26:44;;;;;;;60.65;36.22;;;11.40;99.90;;;;;;2079407;28;20050;-72
2022/10/22 00:27:44;;;;;;;57.28;36.85;;;11.40;99.90;;;;;;2080209;28;20013;-73
2022/10/22 00:28:45;;;;;;;58.22;36.30;;;11.40;99.90;;;;;;2080117;28;20030;-72
2022/10/22 00:29:45;;;;;;;60.13;36.78;;;11.40;99.90;;;;;;2079481;28;20021;-72
2022/10/22 00:30:46;;;;;;;56.65;35.25;;;11.40;99.90;;;;;;2071244;28;20030;-73
2022/10/22 00:31:48;;;;;;;54.28;34.75;;;11.40;99.90;;;;;;2087713;28;20414;-72
2022/10/22 00:32:49;;;;;;;52.83;32.92;;;11.40;99.90;;;;;;2095820;28;20036;-72
2022/10/22 00:33:50;;;;;;;57.53;33.92;;;11.30;99.90;;;;;;2079978;28;20044;-71
2022/10/22 00:34:50;;;;;;;60.47;36.45;;;11.30;99.90;;;;;;2079781;28;20159;-73
2022/10/22 00:35:51;;;;;;;56.63;36.20;;;11.30;99.90;;;;;;2080139;28;20037;-71
2022/10/22 00:36:53;;;;;;;53.15;34.08;;;11.30;99.90;;;;;;2079496;28;20064;-72
2022/10/22 00:37:53;;;;;;;57.38;35.72;;;11.30;99.90;;;;;;2079199;28;20034;-71
2022/10/22 00:38:54;;;;;;;59.47;36.97;;;11.20;99.90;;;;;;2079335;28;20038;-74
2022/10/22 00:39:55;;;;;;;56.05;35.60;;;11.20;99.90;;;;;;2079432;28;20622;-73
2022/10/22 00:40:56;;;;;;;59.92;36.95;;;11.20;99.90;;;;;;2080126;28;20056;-70
2022/10/22 00:41:57;;;;;;;59.55;36.03;;;11.20;99.90;;;;;;2079285;28;20041;-71
2022/10/22 00:42:58;;;;;;;58.10;36.10;;;11.20;99.90;;;;;;2079358;28;20065;-69
2022/10/22 00:44:02;;;;;;;58.03;36.28;;;11.20;99.90;;;;;;2079461;28;20032;-70
2022/10/22 00:45:08;;;;;;;60.10;36.35;;;11.20;99.90;;;;;;2088076;28;20174;-70
2022/10/22 00:46:09;;;;;;;57.75;34.40;;;11.20;99.90;;;;;;2087122;28;20040;-71
2022/10/22 00:47:10;;;;;;;59.75;36.88;;;11.10;99.90;;;;;;2079372;28;20084;-70
2022/10/22 00:48:25;;;;;;;61.58;36.67;;;11.10;99.90;;;;;;2080180;28;20053;-70
2022/10/22 00:49:25;;;;;;;55.58;34.88;;;11.10;99.90;;;;;;2079602;28;20021;-71
2022/10/22 00:50:32;;;;;;;55.88;33.72;;;11.10;99.90;;;;;;2079508;28;20104;-70
2022/10/22 00:51:34;;;;;;;56.88;35.25;;;11.10;99.90;;;;;;2080316;28;20017;-70
2022/10/22 00:52:35;;;;;;;58.95;35.25;;;11.20;99.90;;;;;;2080307;28;20021;-71
2022/10/22 00:53:46;;;;;;;55.30;34.13;;;11.10;99.90;;;;;;2080175;28;20530;-70
2022/10/22 00:54:47;;;;;;;;;;;11.10;99.90;;;;;;2079103;28;20044;-74
2022/10/22 00:55:51;;;;;;;55.97;33.70;;;11.10;99.90;;;;;;2078703;28;19917;-70
2022/10/22 00:56:52;;;;;;;59.25;35.22;;;11.10;99.90;;;;;;2079990;28;20120;-70
2022/10/22 00:57:54;;;;;;;53.78;33.60;;;11.10;99.90;;;;;;2079762;28;20041;-72
2022/10/22 00:58:58;;;;;;;52.90;32.90;;;11.10;99.90;;;;;;2079811;28;20499;-71
2022/10/22 00:59:59;;;;;;;56.22;34.80;;;11.10;99.90;;;;;;2079710;28;20049;-71
2022/10/22 01:01:01;;;;;;;53.72;33.42;;;11.10;99.90;;;;;;2079149;28;20110;-70
2022/10/22 01:02:02;;;;;;;52.63;33.47;;;11.10;99.90;;;;;;2079174;28;20096;-71
2022/10/22 01:03:03;;;;;;;54.55;33.72;;;11.10;99.90;;;;;;2083594;28;20025;-70
2022/10/22 01:04:04;;;;;;;54.47;33.72;;;11.10;99.90;;;;;;2083060;28;20053;-71
2022/10/22 01:05:05;;;;;;;54.40;34.20;;;11.10;99.90;;;;;;2091758;28;20422;-72
2022/10/22 01:06:06;;;;;;;53.25;33.35;;;11.10;99.90;;;;;;2104162;28;20552;-71
2022/10/22 01:07:14;;;;;;;55.50;32.67;;;11.10;99.90;;;;;;2088087;28;20075;-70
2022/10/22 01:08:44;;;;;;;51.78;32.83;;;11.10;99.90;;;;;;2088215;28;20029;-71
2022/10/22 01:09:54;;;;;;;62.63;36.75;;;11.10;99.90;;;;;;2072124;28;20038;-71
2022/10/22 01:11:07;;;;;;;59.17;36.63;;;11.10;99.90;;;;;;2079134;28;20034;-71
2022/10/22 01:12:40;;;;;;;60.78;36.10;;;11.10;99.90;;;;;;2079785;28;20051;-72
2022/10/22 01:14:05;;;;;;;64.20;38.15;;;11.10;99.90;;;;;;2054373;28;20049;-71
2022/10/22 01:15:28;;;;;;;57.42;33.95;;;11.20;99.90;;;;;;2079129;28;20032;-71
2022/10/22 01:16:46;;;;;;;52.72;32.83;;;11.20;99.90;;;;;;2079503;28;20040;-71
2022/10/22 01:18:38;;;;;;;53.67;32.85;;;11.20;99.90;;;;;;2079710;28;20026;-72
2022/10/22 01:20:09;;;;;;;65.03;38.50;;;11.20;99.90;;;;;;2081463;28;20025;-70
2022/10/22 01:21:25;;;;;;;59.70;36.10;;;11.20;99.90;;;;;;2080777;28;20033;-71
2022/10/22 01:22:43;;;;;;;58.28;35.03;;;11.20;99.90;;;;;;2080366;28;20033;-73
2022/10/22 01:24:11;;;;;;;65.80;37.67;;;11.20;99.90;;;;;;2080023;28;20033;-72
2022/10/22 01:25:26;;;;;;;60.88;36.00;;;11.30;99.90;;;;;;2079860;28;20064;-71
2022/10/22 01:26:53;;;;;;;59.22;36.53;;;11.30;99.90;;;;;;2079722;28;20044;-72
2022/10/22 01:28:09;;;;;;;54.35;34.22;;;11.30;99.90;;;;;;2080088;28;20059;-72
2022/10/22 01:29:16;;;;;;;57.88;35.05;;;11.30;99.90;;;;;;2079379;28;20041;-71
2022/10/22 01:30:17;;;;;;;57.83;35.22;;;11.30;99.90;;;;;;2079207;28;20404;-71
2022/10/22 01:31:21;;;;;;;68.18;40.28;;;11.30;99.90;;;;;;2079788;28;20025;-72
2022/10/22 01:32:24;;;;;;;62.08;37.42;;;11.30;99.90;;;;;;2079888;28;20021;-72
2022/10/22 01:33:26;;;;;;;57.55;35.55;;;11.30;99.90;;;;;;2070880;28;20033;-72
2022/10/22 01:34:29;;;;;;;57.55;36.22;;;11.40;99.90;;;;;;2070801;28;20026;-73
2022/10/22 01:35:42;;;;;;;56.10;35.38;;;11.40;99.90;;;;;;2079812;28;20039;-72
2022/10/22 01:36:44;;;;;;;62.65;36.88;;;11.40;99.90;;;;;;2079006;28;20044;-72
2022/10/22 01:37:49;;;;;;;58.50;35.63;;;11.40;99.90;;;;;;2071276;28;20038;-72
2022/10/22 01:38:52;;;;;;;57.17;35.78;;;11.40;99.90;;;;;;2079299;28;20029;-72
2022/10/22 01:39:54;;;;;;;59.28;37.30;;;11.40;99.90;;;;;;2079213;28;20034;-72
2022/10/22 01:40:56;;;;;;;60.92;37.03;;;11.40;99.90;;;;;;2071316;28;20171;-72
2022/10/22 01:41:57;;;;;;;61.50;36.53;;;11.40;99.90;;;;;;2070877;28;20769;-71
2022/10/22 01:43:01;;;;;;;55.45;35.47;;;11.50;99.90;;;;;;2079186;28;20036;-72
2022/10/22 01:44:02;;;;;;;64.72;38.53;;;11.40;99.90;;;;;;2078804;28;20030;-70
2022/10/22 01:45:10;;;;;;;58.05;36.38;;;11.50;99.90;;;;;;2078788;28;20017;-71
2022/10/22 01:46:11;;;;;;;55.25;34.45;;;11.50;99.90;;;;;;2079956;28;20026;-71
2022/10/22 01:48:02;;;;;;;57.20;34.70;;;11.50;99.90;;;;;;2079678;28;20499;-71
2022/10/22 01:49:20;;;;;;;50.97;32.25;;;11.50;99.90;;;;;;2079685;28;20039;-71
2022/10/22 01:50:38;;;;;;;54.90;33.63;;;11.50;99.90;;;;;;2079951;28;20487;-71
2022/10/22 01:52:14;;;;;;;51.13;32.58;;;11.50;99.90;;;;;;2078923;28;20561;-71
2022/10/22 01:53:38;;;;;;;51.60;32.60;;;11.50;99.90;;;;;;2079951;28;20059;-71
2022/10/22 01:54:54;;;;;;;59.20;35.67;;;11.50;99.90;;;;;;2079698;28;20048;-71
2022/10/22 01:56:21;;;;;;;55.15;34.35;;;11.50;99.90;;;;;;2074668;28;20523;-71
2022/10/22 01:57:42;;;;;;;52.30;32.55;;;11.50;99.90;;;;;;2079764;28;20021;-70
2022/10/22 01:58:56;;;;;;;58.63;35.60;;;11.50;99.90;;;;;;2072129;28;20033;-71
2022/10/22 02:00:07;;;;;;;62.83;37.90;;;11.50;99.90;;;;;;2082938;28;20423;-71
2022/10/22 02:01:25;;;;;;;66.93;40.08;;;11.50;99.90;;;;;;2082502;28;20087;-70
2022/10/22 02:02:57;;;;;;;66.70;37.83;;;11.50;99.90;;;;;;2096636;28;20036;-72
2022/10/22 02:04:14;;;;;;;65.45;37.88;;;11.50;99.90;;;;;;2095617;28;20021;-71
2022/10/22 02:05:27;;;;;;;68.80;40.33;;;11.50;99.90;;;;;;2087860;28;20032;-71
2022/10/22 02:06:30;;;;;;;62.60;37.67;;;11.50;99.90;;;;;;2079816;28;20039;-71
2022/10/22 02:07:36;;;;;;;64.20;38.13;;;11.50;99.90;;;;;;2078857;28;20021;-71
2022/10/22 02:08:39;;;;;;;66.93;39.72;;;11.50;99.90;;;;;;2079658;28;20024;-71
2022/10/22 02:09:42;;;;;;;67.25;40.42;;;11.50;99.90;;;;;;2079359;28;20096;-71
2022/10/22 02:10:45;;;;;;;62.90;38.53;;;11.50;99.90;;;;;;2079321;28;20766;-72
2022/10/22 02:11:47;;;;;;;63.97;38.15;;;11.50;99.90;;;;;;2079513;28;20033;-71
2022/10/22 02:12:51;;;;;;;62.00;37.33;;;11.40;99.90;;;;;;2079577;28;20091;-71
2022/10/22 02:13:56;;;;;;;58.65;35.20;;;11.50;99.90;;;;;;2077657;28;20053;-71
2022/10/22 02:14:59;;;;;;;55.65;34.58;;;11.50;99.90;;;;;;2073976;28;20076;-71
2022/10/22 02:16:02;;;;;;;53.95;34.03;;;11.50;99.90;;;;;;2079513;28;20075;-71
2022/10/22 02:17:04;;;;;;;55.33;34.63;;;11.50;99.90;;;;;;2078656;28;20036;-71
2022/10/22 02:18:08;;;;;;;57.30;34.22;;;11.60;99.90;;;;;;2078779;28;20026;-71
2022/10/22 02:19:24;;;;;;;64.75;38.80;;;11.60;99.90;;;;;;2079497;28;20407;-71
2022/10/22 02:20:32;;;;;;;61.30;37.40;;;11.60;99.90;;;;;;2079605;28;20061;-71
2022/10/22 02:21:32;;;;;;;60.42;36.53;;;11.50;99.90;;;;;;2078893;28;20146;-71
2022/10/22 02:22:35;;;;;;;62.67;37.97;;;11.60;99.90;;;;;;2078994;28;20133;-71
2022/10/22 02:23:37;;;;;;;62.97;37.72;;;11.60;99.90;;;;;;2079451;28;20017;-71
2022/10/22 02:24:37;;;;;;;59.40;35.38;;;11.50;99.90;;;;;;2078963;28;20444;-71
2022/10/22 02:25:41;;;;;;;57.15;35.17;;;11.50;99.90;;;;;;2078784;28;20025;-71
2022/10/22 02:26:58;;;;;;;56.22;34.60;;;11.60;99.90;;;;;;2078751;28;20072;-72
2022/10/22 02:28:21;;;;;;;55.00;34.67;;;11.50;99.90;;;;;;2079646;28;20741;-71
2022/10/22 02:29:29;;;;;;;68.53;38.42;;;11.60;99.90;;;;;;2079427;28;20087;-71
2022/10/22 02:30:32;;;;;;;57.30;34.72;;;11.50;99.90;;;;;;2079513;28;20036;-71
2022/10/22 02:31:37;;;;;;;54.70;33.22;;;11.60;99.90;;;;;;2078930;28;20029;-71
2022/10/22 02:32:44;;;;;;;51.70;32.53;;;11.60;99.90;;;;;;2078830;28;20613;-71
2022/10/22 02:33:49;;;;;;;50.88;31.73;;;11.60;99.90;;;;;;2078685;28;20037;-71
2022/10/22 02:34:51;;;;;;;50.22;31.05;;;11.60;99.90;;;;;;2078473;28;20042;-71
2022/10/22 02:35:54;;;;;;;55.63;34.45;;;11.60;99.90;;;;;;2078685;28;20049;-71
2022/10/22 02:36:56;;;;;;;55.55;33.85;;;11.60;99.90;;;;;;2078664;28;20103;-71
2022/10/22 02:37:58;;;;;;;53.50;33.72;;;11.60;99.90;;;;;;2078630;28;20463;-71
2022/10/22 02:38:59;;;;;;;58.20;36.35;;;11.60;99.90;;;;;;2078835;28;20435;-71
2022/10/22 02:40:00;;;;;;;56.72;34.78;;;11.70;99.90;;;;;;2079408;28;20030;-71
2022/10/22 02:41:02;;;;;;;57.22;34.35;;;11.60;99.90;;;;;;2079839;28;20606;-72
2022/10/22 02:42:03;;;;;;;62.92;37.25;;;11.60;99.90;;;;;;2079791;28;20033;-71
2022/10/22 02:43:04;;;;;;;58.03;34.38;;;11.60;99.90;;;;;;2079477;28;20088;-71
2022/10/22 02:44:09;;;;;;;60.05;36.35;;;11.60;99.90;;;;;;2078391;28;20033;-71
2022/10/22 02:45:10;;;;;;;56.42;34.67;;;11.60;99.90;;;;;;2071204;28;20113;-71
2022/10/22 02:46:11;;;;;;;58.92;35.75;;;11.60;99.90;;;;;;2078964;28;20037;-71
2022/10/22 02:47:12;;;;;;;67.03;39.10;;;11.70;99.90;;;;;;2079594;28;20542;-71
2022/10/22 02:48:12;;;;;;;59.65;37.53;;;11.60;99.90;;;;;;2076633;28;20553;-71
2022/10/22 02:49:13;;;;;;;67.07;39.63;;;11.60;99.90;;;;;;2078731;28;20025;-72
2022/10/22 02:50:14;;;;;;;58.70;36.35;;;11.60;99.90;;;;;;2078375;28;20104;-71
2022/10/22 02:51:15;;;;;;;61.22;36.97;;;11.60;99.90;;;;;;2078737;28;20034;-72
2022/10/22 02:52:15;;;;;;;59.60;35.75;;;11.60;99.90;;;;;;2079414;28;20034;-71
2022/10/22 02:53:16;;;;;;;64.22;38.63;;;11.60;99.90;;;;;;2079253;28;20072;-71
2022/10/22 02:54:17;;;;;;;59.53;36.45;;;11.60;99.90;;;;;;2078394;28;20037;-72
2022/10/22 02:55:17;;;;;;;58.20;35.85;;;11.60;99.90;;;;;;2078385;28;20028;-72
2022/10/22 02:56:18;;;;;;;61.67;36.90;;;11.60;99.90;;;;;;2094275;28;20491;-71
2022/10/22 02:57:18;;;;;;;55.10;34.45;;;11.60;99.90;;;;;;2090807;28;20029;-71
2022/10/22 02:58:19;;;;;;;54.70;34.35;;;11.60;99.90;;;;;;2087649;28;20029;-71
2022/10/22 02:59:20;;;;;;;52.88;33.13;;;11.60;99.90;;;;;;2080408;28;20037;-72
2022/10/22 03:00:21;;;;;;;54.35;33.65;;;11.60;99.90;;;;;;2080486;28;20034;-71
2022/10/22 03:01:21;;;;;;;57.15;34.42;;;11.60;99.90;;;;;;2089118;28;20030;-71
2022/10/22 03:02:22;;;;;;;58.15;36.13;;;11.60;99.90;;;;;;2082270;28;20087;-71
2022/10/22 03:03:23;;;;;;;64.45;38.47;;;11.60;99.90;;;;;;2080669;28;20060;-72
2022/10/22 03:04:23;;;;;;;67.22;39.70;;;11.60;99.90;;;;;;2080258;28;20033;-71
2022/10/22 03:05:24;;;;;;;64.97;37.70;;;11.60;99.90;;;;;;2071731;28;20025;-72
2022/10/22 03:06:25;;;;;;;57.80;36.17;;;11.60;99.90;;;;;;2072081;28;20041;-71
2022/10/22 03:07:25;;;;;;;65.38;38.97;;;11.60;99.90;;;;;;2080882;28;20140;-71
2022/10/22 03:08:26;;;;;;;58.13;35.05;;;11.60;99.90;;;;;;2080657;28;20489;-71
2022/10/22 03:09:27;;;;;;;55.10;34.58;;;11.60;99.90;;;;;;2080889;28;20041;-71
2022/10/22 03:10:27;;;;;;;58.55;35.67;;;11.60;99.90;;;;;;2076239;28;20018;-71
2022/10/22 03:11:28;;;;;;;57.58;34.90;;;11.60;99.90;;;;;;2079320;28;20076;-71
2022/10/22 03:12:29;;;;;;;55.72;34.75;;;11.60;99.90;;;;;;2080098;28;20088;-71
2022/10/22 03:13:29;;;;;;;53.55;33.95;;;11.60;99.90;;;;;;2080868;28;20041;-71
2022/10/22 03:14:30;;;;;;;51.38;32.45;;;11.60;99.90;;;;;;2080641;28;20472;-74
2022/10/22 03:15:30;;;;;;;50.92;31.88;;;11.60;99.90;;;;;;2080114;28;20027;-71
2022/10/22 03:16:31;;;;;;;55.92;33.60;;;11.60;99.90;;;;;;2080159;28;20017;-71
2022/10/22 03:17:32;;;;;;;53.10;32.92;;;11.60;99.90;;;;;;2080190;28;20037;-71
2022/10/22 03:18:32;;;;;;;52.75;32.58;;;11.70;99.90;;;;;;2080246;28;20033;-71
2022/10/22 03:19:33;;;;;;;50.72;31.73;;;11.60;99.90;;;;;;2080771;28;20038;-71
2022/10/22 03:20:34;;;;;;;51.53;31.90;;;11.70;99.90;;;;;;2080933;28;20052;-71
2022/10/22 03:21:37;;;;;;;54.00;32.25;;;11.70;99.90;;;;;;2080016;28;20041;-71
2022/10/22 03:22:41;;;;;;;63.55;37.83;;;11.70;99.90;;;;;;2080308;28;20041;-72
2022/10/22 03:23:42;;;;;;;58.80;34.92;;;11.70;99.90;;;;;;2080899;28;20063;-72
2022/10/22 03:24:49;;;;;;;56.25;35.15;;;11.70;99.90;;;;;;2080349;28;20018;-71
2022/10/22 03:25:50;;;;;;;57.97;33.75;;;11.60;99.90;;;;;;2080331;28;20041;-71
2022/10/22 03:26:51;;;;;;;54.75;33.38;;;11.70;99.90;;;;;;2071960;28;20105;-71
2022/10/22 03:27:54;;;;;;;54.85;33.03;;;11.60;99.90;;;;;;2080112;28;20491;-71
2022/10/22 03:28:55;;;;;;;52.05;31.75;;;11.70;99.90;;;;;;2080897;28;20068;-71
2022/10/22 03:29:56;;;;;;;51.67;31.38;;;11.70;99.90;;;;;;2080953;28;20025;-73
2022/10/22 03:30:57;;;;;;;49.30;30.25;;;11.70;99.90;;;;;;2080593;28;20040;-72
2022/10/22 03:31:58;;;;;;;50.35;31.27;;;11.70;99.90;;;;;;2080932;28;20414;-72
2022/10/22 03:32:58;;;;;;;47.33;30.00;;;11.70;99.90;;;;;;2080011;28;20623;-71
2022/10/22 03:33:59;;;;;;;45.95;29.77;;;11.70;99.90;;;;;;2080110;28;20573;-71
2022/10/22 03:35:00;;;;;;;44.50;29.08;;;11.70;99.90;;;;;;2088330;28;20044;-72
2022/10/22 03:36:01;;;;;;;52.53;32.63;;;11.70;99.90;;;;;;2096715;28;20099;-71
2022/10/22 03:37:01;;;;;;;60.85;36.50;;;11.70;99.90;;;;;;2080780;28;20028;-71
2022/10/22 03:38:02;;;;;;;55.03;34.25;;;11.70;99.90;;;;;;2080716;28;20029;-71
2022/10/22 03:39:03;;;;;;;55.78;33.78;;;11.70;99.90;;;;;;2080107;28;20590;-71
2022/10/22 03:40:06;;;;;;;58.30;35.00;;;11.70;99.90;;;;;;2079802;28;20048;-72
2022/10/22 03:41:07;;;;;;;55.38;33.65;;;11.70;99.90;;;;;;2079950;28;20025;-71
2022/10/22 03:42:08;;;;;;;53.17;32.92;;;11.70;99.90;;;;;;2079885;28;20041;-71
2022/10/22 03:43:08;;;;;;;66.75;38.22;;;11.70;99.90;;;;;;2080582;28;20064;-71
2022/10/22 03:44:10;;;;;;;61.47;37.25;;;11.70;99.90;;;;;;2078933;28;20480;-71
2022/10/22 03:45:11;;;;;;;55.90;34.67;;;11.70;99.90;;;;;;2071785;28;20108;-71
2022/10/22 03:46:11;;;;;;;56.63;33.53;;;11.70;99.90;;;;;;2071747;28;20029;-71
2022/10/22 03:47:13;;;;;;;65.05;38.00;;;11.70;99.90;;;;;;2071545;28;20036;-72
2022/10/22 03:48:14;;;;;;;59.63;35.72;;;11.70;99.90;;;;;;2080018;28;20041;-71
2022/10/22 03:49:14;;;;;;;53.90;34.03;;;11.70;99.90;;;;;;2080705;28;20028;-71
2022/10/22 03:50:16;;;;;;;55.45;34.47;;;11.70;99.90;;;;;;2080729;28;20087;-71
2022/10/22 03:51:16;;;;;;;61.78;37.60;;;11.70;99.90;;;;;;2080805;28;20033;-71
2022/10/22 03:52:17;;;;;;;58.72;34.88;;;11.70;99.90;;;;;;2086981;28;20029;-71
2022/10/22 03:53:18;;;;;;;52.38;32.63;;;11.70;99.90;;;;;;2083454;28;20030;-71
2022/10/22 03:54:18;;;;;;;53.78;33.25;;;11.70;99.90;;;;;;2086760;28;20029;-72
2022/10/22 03:55:19;;;;;;;64.80;38.50;;;11.70;99.90;;;;;;2082739;28;20033;-72
2022/10/22 03:56:20;;;;;;;59.50;36.22;;;11.70;99.90;;;;;;2079957;28;20116;-71
2022/10/22 03:57:20;;;;;;;59.72;35.47;;;11.70;99.90;;;;;;2080473;28;20111;-71
2022/10/22 03:58:21;;;;;;;61.42;35.72;;;11.70;99.90;;;;;;2082308;28;20740;-72
2022/10/22 03:59:22;;;;;;;59.25;34.70;;;11.70;99.90;;;;;;2080215;28;20025;-71
2022/10/22 04:00:22;;;;;;;54.90;34.00;;;11.70;99.90;;;;;;2079749;28;20029;-71
2022/10/22 04:01:23;;;;;;;64.80;37.42;;;11.70;99.90;;;;;;2079763;28;20164;-71
2022/10/22 04:02:24;;;;;;;61.55;36.72;;;11.70;99.90;;;;;;2079650;28;20380;-71
2022/10/22 04:03:24;;;;;;;59.33;36.85;;;11.70;99.90;;;;;;2071548;28;20160;-72
2022/10/22 04:04:31;;;;;;;57.47;34.22;;;11.70;99.90;;;;;;2079390;28;20039;-71
2022/10/22 04:05:33;;;;;;;59.13;34.38;;;11.60;99.90;;;;;;2080178;28;20037;-72
2022/10/22 04:06:33;;;;;;;59.72;35.58;;;11.60;99.90;;;;;;2076899;28;20101;-72
2022/10/22 04:07:34;;;;;;;63.13;37.47;;;11.60;99.90;;;;;;2079565;28;20026;-72
2022/10/22 04:08:37;;;;;;;60.10;35.92;;;11.60;99.90;;;;;;2079524;28;20021;-72
2022/10/22 04:09:38;;;;;;;55.33;34.47;;;11.60;99.90;;;;;;2079906;28;20129;-72
2022/10/22 04:10:38;;;;;;;56.22;34.85;;;11.60;99.90;;;;;;2080501;28;20518;-72
2022/10/22 04:11:39;;;;;;;54.67;33.63;;;11.60;99.90;;;;;;2079803;28;20701;-72
2022/10/22 04:12:39;;;;;;;52.65;32.20;;;11.50;99.90;;;;;;2079676;28;20128;-72
2022/10/22 04:13:40;;;;;;;52.47;32.15;;;11.60;99.90;;;;;;2079545;28;20029;-72
2022/10/22 04:14:41;;;;;;;50.55;31.23;;;11.60;99.90;;;;;;2079056;28;20037;-72
2022/10/22 04:15:41;;;;;;;50.10;31.58;;;11.60;99.90;;;;;;2079820;28;20029;-71
2022/10/22 04:16:42;;;;;;;50.08;31.70;;;11.50;99.90;;;;;;2080279;28;20032;-72
2022/10/22 04:17:43;;;;;;;50.60;31.27;;;11.50;99.90;;;;;;2079596;28;20060;-72
2022/10/22 04:18:45;;;;;;;49.17;31.60;;;11.50;99.90;;;;;;2079634;28;20033;-72
2022/10/22 04:19:46;;;;;;;60.25;35.63;;;11.60;99.90;;;;;;2080303;28;20036;-71
2022/10/22 04:20:47;;;;;;;54.95;33.42;;;11.60;99.90;;;;;;2080381;28;20057;-72
2022/10/22 04:21:47;;;;;;;52.10;32.17;;;11.60;99.90;;;;;;2079499;28;20033;-72
2022/10/22 04:22:48;;;;;;;52.35;32.70;;;11.60;99.90;;;;;;2079749;28;20112;-71
2022/10/22 04:23:51;;;;;;;56.05;33.35;;;11.60;99.90;;;;;;2079573;28;20116;-71
2022/10/22 04:24:52;;;;;;;54.75;34.25;;;11.60;99.90;;;;;;2079135;28;20079;-71
2022/10/22 04:26:00;;;;;;;58.20;36.08;;;11.60;99.90;;;;;;2080343;28;20427;-71
2022/10/22 04:27:00;;;;;;;54.03;32.70;;;11.60;99.90;;;;;;2080326;28;20113;-71
2022/10/22 04:28:01;;;;;;;64.00;39.28;;;11.60;99.90;;;;;;2080189;28;20029;-72
2022/10/22 04:29:02;;;;;;;60.97;36.50;;;11.60;99.90;;;;;;2079931;28;20064;-72
2022/10/22 04:30:05;;;;;;;58.13;35.17;;;11.60;99.90;;;;;;2080152;28;20137;-72
2022/10/22 04:31:14;;;;;;;55.45;34.35;;;11.60;99.90;;;;;;2080198;28;20026;-72
2022/10/22 04:32:14;;;;;;;63.13;37.38;;;11.60;99.90;;;;;;2080243;28;20037;-72
2022/10/22 04:33:15;;;;;;;59.72;35.90;;;11.60;99.90;;;;;;2080203;28;20025;-72
2022/10/22 04:34:16;;;;;;;63.22;38.00;;;11.60;99.90;;;;;;2079951;28;20060;-71
2022/10/22 04:35:16;;;;;;;62.60;38.35;;;11.60;99.90;;;;;;2080488;28;20025;-73
2022/10/22 04:36:18;;;;;;;58.38;36.38;;;11.60;99.90;;;;;;2079479;28;20018;-72
2022/10/22 04:37:19;;;;;;;63.95;40.28;;;11.60;99.90;;;;;;2079634;28;20137;-72
2022/10/22 04:38:19;;;;;;;58.38;36.08;;;11.60;99.90;;;;;;2079396;28;20037;-71
2022/10/22 04:39:20;;;;;;;60.42;37.20;;;11.60;99.90;;;;;;2079411;28;20029;-72
2022/10/22 04:40:21;;;;;;;55.72;35.63;;;11.60;99.90;;;;;;2094202;28;20040;-71
2022/10/22 04:41:25;;;;;;;59.42;37.58;;;11.60;99.90;;;;;;2095784;28;20024;-71
2022/10/22 04:42:25;;;;;;;56.00;35.60;;;11.60;99.90;;;;;;2080012;28;20037;-72
2022/10/22 04:43:26;;;;;;;62.20;37.22;;;11.60;99.90;;;;;;2079415;28;20049;-71
2022/10/22 04:44:27;;;;;;;60.85;36.47;;;11.60;99.90;;;;;;2078904;28;20079;-72
2022/10/22 04:45:27;;;;;;;64.40;39.30;;;11.60;99.90;;;;;;2080156;28;20021;-71
2022/10/22 04:46:30;;;;;;;59.30;36.13;;;11.60;99.90;;;;;;2079497;28;20032;-72
2022/10/22 04:47:31;;;;;;;54.03;34.20;;;11.60;99.90;;;;;;2079093;28;20021;-71
2022/10/22 04:48:31;;;;;;;54.10;34.20;;;11.60;99.90;;;;;;2079312;28;20075;-71
2022/10/22 04:49:32;;;;;;;51.50;32.58;;;11.60;99.90;;;;;;2079609;28;20045;-71
2022/10/22 04:50:33;;;;;;;53.30;33.00;;;11.60;99.90;;;;;;2088163;28;20099;-71
2022/10/22 04:51:33;;;;;;;49.60;31.77;;;11.60;99.90;;;;;;2087439;28;20100;-71
2022/10/22 04:52:34;;;;;;;55.35;34.38;;;11.60;99.90;;;;;;2087670;28;20602;-71
2022/10/22 04:53:35;;;;;;;57.50;34.60;;;11.60;99.90;;;;;;2088286;28;20029;-71
2022/10/22 04:54:36;;;;;;;55.35;33.50;;;11.60;99.90;;;;;;2071296;28;20044;-72
2022/10/22 04:55:36;;;;;;;64.53;38.80;;;11.60;99.90;;;;;;2072074;28;20052;-70
2022/10/22 04:56:37;;;;;;;57.17;35.08;;;11.60;99.90;;;;;;2079210;28;20017;-74
2022/10/22 04:57:38;;;;;;;53.38;34.15;;;11.50;99.90;;;;;;2079941;28;20079;-72
2022/10/22 04:58:38;;;;;;;57.25;35.88;;;11.50;99.90;;;;;;2080000;28;20045;-73
2022/10/22 04:59:39;;;;;;;53.58;33.85;;;11.50;99.90;;;;;;2080009;28;20029;-72
2022/10/22 05:00:40;;;;;;;56.83;35.05;;;11.50;99.90;;;;;;2079545;28;20109;-72
2022/10/22 05:01:42;;;;;;;55.78;35.00;;;11.50;99.90;;;;;;2079552;28;20056;-72
2022/10/22 05:02:48;;;;;;;54.92;33.70;;;11.50;99.90;;;;;;2077489;28;20064;-72
2022/10/22 05:03:51;;;;;;;62.42;37.58;;;11.50;99.90;;;;;;2079286;28;20030;-73
2022/10/22 05:04:51;;;;;;;58.40;35.20;;;11.50;99.90;;;;;;2079344;28;20026;-72
2022/10/22 05:05:52;;;;;;;61.45;36.25;;;11.40;99.90;;;;;;2080037;28;20032;-72
2022/10/22 05:06:53;;;;;;;60.45;35.80;;;11.50;99.90;;;;;;2079922;28;20030;-72
2022/10/22 05:07:53;;;;;;;53.63;32.90;;;11.40;99.90;;;;;;2080090;28;20794;-72
2022/10/22 05:08:56;;;;;;;51.03;32.33;;;11.40;99.90;;;;;;2087375;28;20048;-71
2022/10/22 05:09:57;;;;;;;53.85;33.42;;;11.40;99.90;;;;;;2087281;28;20021;-71
2022/10/22 05:10:58;;;;;;;52.13;32.50;;;11.40;99.90;;;;;;2079308;28;20040;-71
2022/10/22 05:11:58;;;;;;;53.95;33.33;;;11.40;99.90;;;;;;2079226;28;20101;-71
2022/10/22 05:12:59;;;;;;;63.50;36.80;;;11.40;99.90;;;;;;2080020;28;20056;-72
2022/10/22 05:14:02;;;;;;;54.13;33.80;;;11.40;99.90;;;;;;2080032;28;20487;-71
2022/10/22 05:15:03;;;;;;;51.10;32.67;;;11.40;99.90;;;;;;2079848;28;20044;-71
2022/10/22 05:16:04;;;;;;;59.38;35.30;;;11.40;99.90;;;;;;2079757;28;20037;-71
2022/10/22 05:17:04;;;;;;;60.20;36.05;;;11.40;99.90;;;;;;2079305;28;20045;-71
2022/10/22 05:18:05;;;;;;;57.67;35.60;;;11.40;99.90;;;;;;2079298;28;20093;-71
2022/10/22 05:19:06;;;;;;;55.85;34.78;;;11.40;99.90;;;;;;2079170;28;20040;-71
2022/10/22 05:20:08;;;;;;;54.78;35.58;;;11.40;99.90;;;;;;2078832;28;20037;-72
2022/10/22 05:21:14;;;;;;;60.22;37.03;;;11.40;99.90;;;;;;2070894;28;20385;-72
2022/10/22 05:22:15;;;;;;;55.10;35.42;;;11.30;99.90;;;;;;2063599;28;20386;-71
2022/10/22 05:23:16;;;;;;;56.90;34.60;;;11.30;99.90;;;;;;2071190;28;20022;-71
2022/10/22 05:24:17;;;;;;;56.33;34.65;;;11.30;99.90;;;;;;2079644;28;20025;-72